Terminal Aerodrome Forecast
Issued by NWS

Home | Current Version | Previous Version | Text Only | Print | Product List | Glossary On
Versions: 1 2 3 4 5 6 7 8 9 10 11 12 13 14 15 16 17 18 19 20 21 22 23 24 25
000
FTAK31 PAJK 200524
TAFAGY
TAF
PAGY 200524Z 2006/2106 00000KT P6SM -SHRA BKN025 OVC040
     FM200900 00000KT 5SM -SHRASN BKN025 OVC040
     FM201300 03005KT P6SM VCSH SCT025 OVC040
     FM202000 03012G19KT P6SM SCT100
     AMD NOT SKED=

USA.gov is the U.S. government's official web portal to all federal, state and local government web resources and services.